Time;durP1;ratioP1;P1;durP2;ratioP2;P2;SDS_P1;SDS_P2;PMS_P1;PMS_P2;Temp;Humidity;BMP_temperature;BMP_pressure;BME280_temperature;BME280_humidity;BME280_pressure;Samples;Min_cycle;Max_cycle;Signal;HPM_P1;HPM_P2
2022/01/09 00:03:18;;;;;;;27.50;15.20;;;22.90;55.00;;;;;;215141;1296;22567;-56
2022/01/09 00:08:21;;;;;;;30.20;15.80;;;22.90;55.00;;;;;;215155;1293;23079;-56
2022/01/09 00:13:28;;;;;;;28.70;14.90;;;22.80;54.90;;;;;;215311;1297;24334;-58
2022/01/09 00:18:32;;;;;;;30.00;15.20;;;22.80;55.00;;;;;;215082;1297;27095;-56
2022/01/09 00:23:36;;;;;;;26.30;13.70;;;22.70;55.10;;;;;;215218;1296;22598;-56
2022/01/09 00:28:42;;;;;;;26.20;13.90;;;22.60;55.10;;;;;;215072;1296;23096;-57
2022/01/09 00:33:48;;;;;;;25.00;14.30;;;22.50;55.30;;;;;;215101;1297;22597;-57
2022/01/09 00:38:52;;;;;;;25.40;14.60;;;22.40;55.30;;;;;;215133;1293;22650;-57
2022/01/09 00:43:55;;;;;;;26.90;15.10;;;22.30;55.30;;;;;;214911;1293;25364;-56
2022/01/09 00:49:03;;;;;;;23.10;14.30;;;22.30;55.40;;;;;;215329;1293;22576;-57
2022/01/09 00:54:07;;;;;;;25.20;14.80;;;22.30;54.90;;;;;;215160;1293;22639;-55
2022/01/09 00:59:18;;;;;;;24.40;13.60;;;22.80;54.00;;;;;;215234;1293;22609;-55
2022/01/09 01:04:22;;;;;;;23.10;14.70;;;23.20;52.90;;;;;;215293;1294;22678;-56
2022/01/09 01:09:30;;;;;;;22.10;14.00;;;23.50;52.60;;;;;;214968;1296;23549;-58
2022/01/09 01:14:34;;;;;;;25.30;14.40;;;23.60;51.90;;;;;;215183;1294;22658;-56
2022/01/09 01:19:37;;;;;;;22.60;13.60;;;23.60;52.20;;;;;;215310;1294;22584;-54
2022/01/09 01:25:04;;;;;;;24.80;13.80;;;23.90;51.60;;;;;;215214;1296;22640;-56
2022/01/09 01:30:08;;;;;;;25.60;13.60;;;23.90;51.30;;;;;;215137;1297;22567;-58
2022/01/09 01:35:14;;;;;;;23.20;12.70;;;23.90;51.10;;;;;;215468;1297;22601;-57
2022/01/09 01:40:23;;;;;;;23.40;13.60;;;24.00;50.90;;;;;;215061;1297;22574;-57
2022/01/09 01:45:26;;;;;;;21.70;12.70;;;24.10;50.70;;;;;;215139;1296;22746;-56
2022/01/09 01:50:34;;;;;;;22.00;13.20;;;24.10;50.70;;;;;;215163;1297;22597;-58
2022/01/09 01:55:42;;;;;;;21.20;13.30;;;24.00;50.80;;;;;;215109;1294;25477;-56
2022/01/09 02:00:46;;;;;;;21.40;14.00;;;23.90;51.20;;;;;;215202;1293;22745;-55
2022/01/09 02:05:49;;;;;;;23.00;14.10;;;23.80;51.00;;;;;;215139;1297;22751;-57
2022/01/09 02:10:53;;;;;;;20.60;12.80;;;23.70;51.50;;;;;;215219;1296;22666;-56
2022/01/09 02:15:59;;;;;;;21.80;14.00;;;23.60;51.60;;;;;;215070;1293;22591;-57
2022/01/09 02:21:02;;;;;;;22.00;14.70;;;23.40;52.40;;;;;;215125;1294;23618;-54
2022/01/09 02:26:07;;;;;;;23.80;15.00;;;23.30;52.30;;;;;;215588;1294;22638;-56
2022/01/09 02:31:10;;;;;;;20.90;14.30;;;23.20;52.30;;;;;;215259;1293;24265;-56
2022/01/09 02:36:14;;;;;;;20.70;13.30;;;23.00;52.30;;;;;;215197;1294;24348;-57
2022/01/09 02:41:18;;;;;;;20.10;13.30;;;22.90;52.30;;;;;;215039;1293;25559;-56
2022/01/09 02:46:52;;;;;;;23.60;13.60;;;22.80;52.30;;;;;;215401;1296;24250;-58
2022/01/09 02:51:58;;;;;;;20.50;12.00;;;22.80;52.20;;;;;;214906;1295;26664;-54
2022/01/09 02:57:01;;;;;;;20.30;13.30;;;22.70;52.10;;;;;;215295;1293;25292;-56
2022/01/09 03:02:05;;;;;;;20.00;12.60;;;22.60;52.10;;;;;;215364;1293;24236;-56
2022/01/09 03:07:09;;;;;;;20.10;12.60;;;22.50;52.00;;;;;;215058;1295;25588;-57
2022/01/09 03:12:12;;;;;;;20.10;12.40;;;22.40;52.00;;;;;;215186;1296;24333;-56
2022/01/09 03:17:16;;;;;;;20.30;12.60;;;22.30;52.00;;;;;;215214;1293;22583;-57
2022/01/09 03:22:22;;;;;;;17.70;11.70;;;22.30;52.00;;;;;;215264;1293;24661;-56
2022/01/09 03:27:27;;;;;;;19.30;12.20;;;22.20;52.00;;;;;;215165;1293;22594;-56
2022/01/09 03:32:31;;;;;;;18.30;12.20;;;22.20;52.10;;;;;;215161;1293;22586;-57
2022/01/09 03:37:35;;;;;;;19.70;11.70;;;22.10;52.00;;;;;;215329;1293;22840;-56
2022/01/09 03:42:39;;;;;;;17.50;10.90;;;22.20;51.90;;;;;;215498;1297;22731;-56
2022/01/09 03:47:42;;;;;;;19.20;10.60;;;22.70;50.80;;;;;;215114;1293;22874;-57
2022/01/09 03:52:48;;;;;;;18.10;11.00;;;23.00;49.80;;;;;;215430;1293;22592;-56
2022/01/09 03:57:52;;;;;;;16.90;10.20;;;23.20;49.20;;;;;;215277;1293;24358;-56
2022/01/09 04:02:55;;;;;;;17.30;10.80;;;23.40;48.80;;;;;;215421;1295;24299;-56
2022/01/09 04:07:59;;;;;;;15.40;10.50;;;23.50;48.60;;;;;;215124;1293;22661;-59
2022/01/09 04:13:15;;;;;;;16.40;11.20;;;23.60;48.40;;;;;;215164;1293;22649;-57
2022/01/09 04:18:23;;;;;;;16.80;10.40;;;23.60;48.20;;;;;;215196;1293;24285;-57
2022/01/09 04:23:26;;;;;;;15.10;10.30;;;23.70;48.00;;;;;;215072;1293;22644;-57
2022/01/09 04:28:30;;;;;;;14.80;9.80;;;23.70;47.90;;;;;;215112;1293;25290;-57
2022/01/09 04:33:33;;;;;;;16.40;9.80;;;23.70;48.20;;;;;;215102;1296;22777;-56
2022/01/09 04:38:37;;;;;;;15.20;10.00;;;23.80;47.50;;;;;;215029;1294;22657;-57
2022/01/09 04:43:42;;;;;;;14.50;10.00;;;23.80;47.30;;;;;;215224;1293;25482;-58
2022/01/09 04:48:48;;;;;;;16.00;10.10;;;23.80;47.50;;;;;;215412;1293;25548;-56
2022/01/09 04:53:51;;;;;;;14.60;10.00;;;23.70;47.30;;;;;;215207;1293;24350;-58
2022/01/09 04:58:55;;;;;;;14.20;9.70;;;23.60;47.10;;;;;;215217;1293;22648;-57
2022/01/09 05:03:58;;;;;;;16.50;10.40;;;23.60;47.10;;;;;;214937;1293;25420;-58
2022/01/09 05:09:02;;;;;;;16.20;9.80;;;23.60;47.00;;;;;;215162;1293;22600;-55
2022/01/09 05:14:06;;;;;;;14.60;9.30;;;23.60;47.00;;;;;;215131;1293;24344;-55
2022/01/09 05:19:17;;;;;;;15.50;10.00;;;23.60;47.00;;;;;;215160;1293;24358;-57
2022/01/09 05:24:22;;;;;;;15.30;9.10;;;23.60;47.00;;;;;;215038;1293;22645;-58
2022/01/09 05:29:25;;;;;;;14.50;9.00;;;23.50;47.00;;;;;;215080;1296;24357;-59
2022/01/09 05:34:29;;;;;;;14.10;9.80;;;23.50;47.10;;;;;;215116;1293;25583;-57
2022/01/09 05:39:33;;;;;;;13.10;8.50;;;23.50;47.20;;;;;;215093;1293;24421;-56
2022/01/09 05:44:37;;;;;;;13.00;8.20;;;23.50;47.40;;;;;;215434;1293;25442;-56
2022/01/09 05:49:41;;;;;;;13.40;8.70;;;23.50;47.40;;;;;;215108;1293;22643;-55
2022/01/09 05:54:44;;;;;;;14.10;8.90;;;23.50;46.80;;;;;;214876;1296;293898;-59
2022/01/09 05:59:48;;;;;;;13.10;8.40;;;23.50;46.60;;;;;;215139;1293;26783;-56
2022/01/09 06:04:52;;;;;;;15.30;8.90;;;23.60;46.50;;;;;;215310;1293;24358;-57
2022/01/09 06:09:55;;;;;;;13.90;8.80;;;23.60;46.30;;;;;;215250;1293;22582;-56
2022/01/09 06:14:59;;;;;;;14.90;9.50;;;23.70;46.10;;;;;;215266;1293;24327;-59
2022/01/09 06:20:04;;;;;;;15.40;9.00;;;23.80;46.00;;;;;;215329;1293;25395;-58
2022/01/09 06:25:09;;;;;;;11.50;8.00;;;23.70;46.40;;;;;;215143;1293;25646;-55
2022/01/09 06:30:13;;;;;;;12.10;7.70;;;23.70;46.30;;;;;;215532;1293;25289;-57
2022/01/09 06:35:17;;;;;;;14.90;8.10;;;23.60;46.10;;;;;;215698;1293;22595;-57
2022/01/09 06:40:21;;;;;;;11.50;7.80;;;23.60;46.20;;;;;;215111;1296;24334;-57
2022/01/09 06:45:26;;;;;;;13.00;8.40;;;23.60;46.60;;;;;;215215;1293;22645;-55
2022/01/09 06:50:30;;;;;;;13.00;8.20;;;23.50;46.10;;;;;;215367;1293;23712;-55
2022/01/09 06:55:33;;;;;;;11.10;7.50;;;23.50;46.00;;;;;;215976;1293;24240;-56
2022/01/09 07:00:37;;;;;;;12.10;7.60;;;23.50;46.00;;;;;;215095;1295;24281;-57
2022/01/09 07:05:41;;;;;;;11.50;7.70;;;23.50;45.90;;;;;;215285;1296;24196;-57
2022/01/09 07:10:46;;;;;;;11.50;7.60;;;23.60;45.80;;;;;;215209;1293;22693;-54
2022/01/09 07:15:54;;;;;;;13.70;7.70;;;23.60;46.00;;;;;;215072;1296;24253;-53
2022/01/09 07:21:01;;;;;;;12.20;7.40;;;23.60;46.00;;;;;;215450;1293;25380;-55
2022/01/09 07:26:09;;;;;;;13.40;7.40;;;23.70;46.00;;;;;;214987;1294;22595;-55
2022/01/09 07:31:17;;;;;;;14.10;7.50;;;23.70;45.90;;;;;;215492;1293;22624;-55
2022/01/09 07:36:24;;;;;;;11.10;7.20;;;23.70;45.90;;;;;;214953;1293;22867;-55
2022/01/09 07:41:28;;;;;;;12.80;7.10;;;23.70;46.20;;;;;;214879;1296;22574;-54
2022/01/09 07:46:45;;;;;;;10.60;7.10;;;23.70;46.00;;;;;;215033;1296;24102;-55
2022/01/09 07:51:55;;;;;;;10.10;7.00;;;23.70;46.40;;;;;;215100;1293;22595;-57
2022/01/09 07:57:01;;;;;;;10.10;7.20;;;23.70;45.90;;;;;;214892;1293;23900;-54
2022/01/09 08:02:12;;;;;;;10.80;7.70;;;23.70;45.80;;;;;;214790;1293;25736;-55
2022/01/09 08:07:15;;;;;;;11.80;8.00;;;23.70;45.90;;;;;;214919;1293;25512;-55
2022/01/09 08:12:20;;;;;;;10.90;7.60;;;23.60;45.50;;;;;;214911;1296;26787;-53
2022/01/09 08:17:24;;;;;;;11.10;7.30;;;23.60;45.60;;;;;;214649;1296;25449;-55
2022/01/09 08:22:30;;;;;;;14.30;8.00;;;23.70;45.00;;;;;;214931;1293;25617;-56
2022/01/09 08:27:34;;;;;;;10.80;7.30;;;23.80;44.40;;;;;;214685;1293;22632;-55
2022/01/09 08:32:38;;;;;;;12.30;7.80;;;23.80;44.50;;;;;;214565;1294;24344;-55
2022/01/09 08:37:47;;;;;;;13.30;7.90;;;23.80;43.90;;;;;;214896;1296;24351;-56
2022/01/09 08:42:53;;;;;;;11.80;7.60;;;23.80;43.60;;;;;;215029;1293;22694;-54
2022/01/09 08:47:59;;;;;;;11.80;7.40;;;23.90;43.70;;;;;;214735;1293;22612;-57
2022/01/09 08:53:03;;;;;;;12.20;7.70;;;23.90;43.00;;;;;;214731;1293;26897;-56
2022/01/09 08:58:19;;;;;;;12.70;8.00;;;23.90;42.90;;;;;;214571;1296;22592;-56
2022/01/09 09:03:24;;;;;;;10.90;7.40;;;23.90;42.80;;;;;;214877;1293;22593;-55
2022/01/09 09:08:29;;;;;;;11.80;7.40;;;23.80;43.00;;;;;;214591;1293;22612;-57
2022/01/09 09:13:33;;;;;;;10.20;7.20;;;23.80;42.90;;;;;;214858;1292;22570;-56
2022/01/09 09:18:41;;;;;;;11.10;7.30;;;23.80;42.60;;;;;;215161;1293;22574;-53
2022/01/09 09:23:48;;;;;;;11.00;7.80;;;23.80;42.60;;;;;;215150;1293;25187;-55
2022/01/09 09:28:56;;;;;;;11.40;7.30;;;23.80;42.90;;;;;;215170;1293;25519;-55
2022/01/09 09:34:04;;;;;;;11.00;7.40;;;23.80;42.40;;;;;;215129;1292;22577;-57
2022/01/09 09:39:15;;;;;;;13.40;8.00;;;23.80;42.20;;;;;;214811;1293;24261;-58
2022/01/09 09:44:22;;;;;;;12.00;7.30;;;23.90;42.20;;;;;;217638;1295;24364;-57
2022/01/09 09:49:26;;;;;;;12.70;7.10;;;24.00;42.00;;;;;;215733;1292;22582;-55
2022/01/09 09:54:33;;;;;;;13.20;7.10;;;24.00;41.80;;;;;;215395;1293;22576;-57
2022/01/09 09:59:39;;;;;;;10.50;7.10;;;24.00;41.90;;;;;;215126;1296;24404;-56
2022/01/09 10:05:04;;;;;;;11.30;6.30;;;24.10;42.40;;;;;;215401;1293;22569;-55
2022/01/09 10:10:14;;;;;;;11.20;6.30;;;24.20;41.90;;;;;;215126;1293;25295;-57
2022/01/09 10:15:20;;;;;;;12.40;7.30;;;24.10;42.30;;;;;;215308;1293;24227;-55
2022/01/09 10:20:24;;;;;;;9.50;6.40;;;24.10;42.40;;;;;;215201;1293;24288;-55
2022/01/09 10:25:30;;;;;;;12.40;7.30;;;24.10;42.60;;;;;;215317;1296;22721;-57
2022/01/09 10:30:47;;;;;;;14.10;6.30;;;23.90;43.00;;;;;;215409;1293;24291;-57
2022/01/09 10:35:52;;;;;;;9.80;6.40;;;23.80;43.20;;;;;;215239;1293;25380;-58
2022/01/09 10:41:01;;;;;;;9.70;5.80;;;23.70;43.80;;;;;;215568;1296;22592;-55
2022/01/09 10:46:06;;;;;;;10.20;5.70;;;23.60;43.50;;;;;;215322;1293;22567;-54
2022/01/09 10:51:12;;;;;;;11.20;5.40;;;23.50;43.50;;;;;;215337;1293;22699;-55
2022/01/09 10:56:20;;;;;;;10.90;6.30;;;23.50;43.60;;;;;;215054;1293;26610;-60
2022/01/09 11:01:25;;;;;;;17.50;6.40;;;23.50;43.90;;;;;;215553;1292;22594;-57
2022/01/09 11:06:43;;;;;;;13.30;6.30;;;23.40;44.10;;;;;;215180;1293;24334;-58
2022/01/09 11:11:53;;;;;;;13.60;6.50;;;23.30;43.90;;;;;;215083;1293;22601;-54
2022/01/09 11:17:19;;;;;;;10.40;6.00;;;23.40;44.20;;;;;;214983;1296;22719;-58
2022/01/09 11:22:23;;;;;;;9.10;5.80;;;23.50;44.30;;;;;;214953;1296;22598;-58
2022/01/09 11:27:58;;;;;;;8.30;5.20;;;23.40;44.00;;;;;;215280;1296;24200;-61
2022/01/09 11:33:18;;;;;;;9.30;5.60;;;23.40;44.30;;;;;;214798;1293;22671;-59
2022/01/09 11:38:59;;;;;;;9.60;5.10;;;23.30;43.90;;;;;;215140;1294;22806;-60
2022/01/09 11:44:09;;;;;;;11.90;5.70;;;23.30;44.10;;;;;;214818;1293;22581;-61
2022/01/09 11:49:25;;;;;;;9.50;6.00;;;23.10;44.30;;;;;;215047;1293;24418;-59
2022/01/09 11:55:00;;;;;;;11.70;5.50;;;23.10;44.40;;;;;;215031;1293;23221;-60
2022/01/09 12:00:47;;;;;;;10.60;5.50;;;23.10;44.70;;;;;;214997;1293;22584;-58
2022/01/09 12:06:10;;;;;;;7.90;5.50;;;23.10;44.60;;;;;;214737;1293;25318;-57
2022/01/09 12:11:44;;;;;;;15.00;5.60;;;23.00;44.70;;;;;;215349;1293;22657;-52
2022/01/09 12:16:59;;;;;;;8.90;5.80;;;22.90;44.90;;;;;;215191;1293;25426;-55
2022/01/09 12:22:32;;;;;;;9.50;5.80;;;23.10;44.90;;;;;;215261;1293;24239;-53
2022/01/09 12:28:17;;;;;;;11.80;5.80;;;23.30;44.60;;;;;;215105;1293;24318;-57
2022/01/09 12:33:49;;;;;;;18.70;6.10;;;23.40;44.10;;;;;;215088;1293;22753;-51
2022/01/09 12:39:07;;;;;;;8.20;5.70;;;23.40;44.50;;;;;;215151;1293;24182;-55
2022/01/09 12:44:38;;;;;;;11.60;6.00;;;22.90;44.60;;;;;;214690;1293;24293;-56
2022/01/09 12:51:02;;;;;;;;;;;;;;;;;;;;;
2022/01/09 12:56:37;;;;;;;9.40;5.60;;;22.80;44.50;;;;;;215254;1293;24289;-56
2022/01/09 13:02:17;;;;;;;9.20;5.50;;;22.70;44.80;;;;;;215135;1296;25416;-54
2022/01/09 13:07:59;;;;;;;12.10;5.70;;;22.60;45.00;;;;;;215454;1293;22596;-51
2022/01/09 13:13:15;;;;;;;11.60;5.40;;;22.60;45.50;;;;;;215379;1293;22606;-54
2022/01/09 13:18:40;;;;;;;10.20;5.90;;;22.40;45.90;;;;;;214955;1295;24451;-55
2022/01/09 13:24:29;;;;;;;7.20;5.80;;;22.40;46.10;;;;;;215029;1296;25545;-52
2022/01/09 13:29:46;;;;;;;9.10;5.90;;;22.40;45.90;;;;;;215437;1293;25528;-53
2022/01/09 13:35:26;;;;;;;9.20;4.90;;;22.30;46.40;;;;;;215647;1293;24319;-51
2022/01/09 13:40:57;;;;;;;8.00;5.40;;;22.30;45.90;;;;;;215186;1293;25433;-51
2022/01/09 13:46:40;;;;;;;9.80;5.30;;;22.50;46.00;;;;;;215042;1293;24285;-51
2022/01/09 13:51:50;;;;;;;10.90;5.10;;;22.90;45.10;;;;;;215026;1296;24319;-53
2022/01/09 13:57:10;;;;;;;8.40;5.40;;;23.10;44.60;;;;;;215016;1293;25550;-50
2022/01/09 14:02:37;;;;;;;10.50;5.00;;;23.20;44.50;;;;;;214924;1294;23159;-55
2022/01/09 14:08:01;;;;;;;9.10;5.00;;;23.40;44.50;;;;;;214349;1293;22584;-54
2022/01/09 14:13:16;;;;;;;7.60;5.20;;;23.50;44.40;;;;;;214739;1296;24256;-54
2022/01/09 14:18:32;;;;;;;8.40;4.80;;;23.50;44.40;;;;;;215038;1296;22835;-54
2022/01/09 14:24:08;;;;;;;7.60;5.20;;;23.60;44.40;;;;;;215168;1296;22738;-51
2022/01/09 14:29:39;;;;;;;8.70;5.00;;;23.60;44.30;;;;;;214960;1293;24287;-51
2022/01/09 14:34:46;;;;;;;8.90;5.40;;;23.80;45.20;;;;;;214765;1296;22774;-54
2022/01/09 14:39:51;;;;;;;8.50;5.00;;;23.90;46.40;;;;;;215451;1293;25895;-54
2022/01/09 14:44:57;;;;;;;10.20;5.70;;;24.00;47.00;;;;;;214894;1293;22592;-51
2022/01/09 14:50:12;;;;;;;8.60;5.50;;;24.10;47.40;;;;;;215063;1293;25471;-52
2022/01/09 14:55:16;;;;;;;10.30;5.20;;;24.10;48.00;;;;;;215106;1293;26787;-54
2022/01/09 15:00:30;;;;;;;8.80;5.60;;;24.10;48.80;;;;;;214857;1296;22734;-52
2022/01/09 15:05:56;;;;;;;12.90;5.90;;;23.90;48.30;;;;;;215056;1296;22876;-55
2022/01/09 15:11:10;;;;;;;27.50;10.20;;;23.80;47.60;;;;;;215219;1296;22596;-56
2022/01/09 15:16:20;;;;;;;25.60;9.30;;;23.70;46.60;;;;;;215120;1293;23745;-54
2022/01/09 15:21:27;;;;;;;29.10;11.20;;;23.40;45.90;;;;;;214919;1293;24282;-53
2022/01/09 15:26:31;;;;;;;27.30;11.30;;;23.30;46.60;;;;;;214851;1293;22629;-50
2022/01/09 15:31:38;;;;;;;24.50;11.10;;;23.10;46.70;;;;;;215212;1293;25260;-52
2022/01/09 15:36:42;;;;;;;24.40;10.40;;;22.90;47.50;;;;;;215057;1293;22917;-55
2022/01/09 15:41:46;;;;;;;26.80;10.70;;;22.90;47.80;;;;;;214867;1293;24281;-52
2022/01/09 15:46:51;;;;;;;25.20;11.10;;;22.70;48.30;;;;;;215118;1293;24348;-50
2022/01/09 15:51:54;;;;;;;27.30;11.30;;;22.70;48.90;;;;;;215142;1293;22599;-55
2022/01/09 15:56:59;;;;;;;21.00;10.50;;;22.70;49.20;;;;;;214992;1293;25468;-51
2022/01/09 16:02:03;;;;;;;24.80;10.10;;;22.70;49.10;;;;;;215428;1293;24938;-54
2022/01/09 16:07:09;;;;;;;25.60;11.50;;;22.60;49.10;;;;;;214950;1293;24290;-55
2022/01/09 16:12:17;;;;;;;32.90;11.20;;;22.60;49.20;;;;;;214964;1293;25097;-52
2022/01/09 16:17:20;;;;;;;26.50;12.10;;;22.50;48.80;;;;;;215098;1293;24262;-54
2022/01/09 16:22:24;;;;;;;25.20;9.60;;;22.50;48.60;;;;;;214783;1293;24278;-57
2022/01/09 16:27:32;;;;;;;23.70;10.70;;;22.40;48.90;;;;;;214631;1293;25620;-57
2022/01/09 16:32:37;;;;;;;22.50;10.30;;;22.40;48.90;;;;;;214970;1293;22750;-57
2022/01/09 16:38:02;;;;;;;19.50;10.00;;;22.30;49.30;;;;;;215810;1293;22723;-56
2022/01/09 16:43:06;;;;;;;18.20;9.00;;;22.20;49.50;;;;;;215409;1293;22715;-55
2022/01/09 16:48:29;;;;;;;18.40;9.90;;;22.10;49.70;;;;;;215119;1293;22744;-56
2022/01/09 16:53:44;;;;;;;22.20;9.30;;;22.20;49.60;;;;;;215151;1296;22769;-56
2022/01/09 16:58:59;;;;;;;17.20;10.20;;;22.50;49.00;;;;;;215093;1293;22595;-56
2022/01/09 17:04:08;;;;;;;17.30;10.10;;;23.00;48.30;;;;;;215314;1293;22591;-56
2022/01/09 17:09:22;;;;;;;22.90;10.20;;;23.30;47.70;;;;;;215380;1293;22573;-56
2022/01/09 17:14:31;;;;;;;;;;;23.50;46.90;;;;;;215327;1293;22705;-57
2022/01/09 17:20:21;;;;;;;17.40;10.30;;;23.60;47.00;;;;;;215118;1293;25341;-55
2022/01/09 17:25:47;;;;;;;14.90;8.60;;;23.70;46.80;;;;;;215084;1293;23963;-56
2022/01/09 17:30:55;;;;;;;15.70;9.60;;;23.80;46.70;;;;;;215009;1294;23216;-56
2022/01/09 17:36:05;;;;;;;16.50;8.90;;;23.80;46.30;;;;;;214920;1293;25534;-58
2022/01/09 17:41:12;;;;;;;19.00;9.20;;;23.90;46.00;;;;;;215094;1293;22885;-56
2022/01/09 17:46:23;;;;;;;15.00;9.20;;;24.00;46.00;;;;;;215136;1293;22598;-57
2022/01/09 17:51:53;;;;;;;16.80;9.40;;;23.90;45.90;;;;;;215190;1293;25175;-55
2022/01/09 17:56:57;;;;;;;13.90;8.70;;;24.00;46.00;;;;;;214849;1293;190191;-59
2022/01/09 18:02:12;;;;;;;16.50;9.10;;;23.90;46.40;;;;;;215127;1293;24565;-57
2022/01/09 18:07:18;;;;;;;15.10;9.30;;;24.00;46.20;;;;;;215189;1293;22574;-57
2022/01/09 18:12:24;;;;;;;18.10;9.00;;;23.90;46.40;;;;;;215273;1293;22780;-57
2022/01/09 18:17:42;;;;;;;18.30;8.70;;;23.90;46.40;;;;;;216039;1295;25046;-57
2022/01/09 18:23:21;;;;;;;20.70;9.30;;;23.90;46.90;;;;;;215078;1296;22589;-57
2022/01/09 18:29:14;;;;;;;17.60;8.90;;;23.90;48.60;;;;;;215488;1293;24370;-58
2022/01/09 18:34:30;;;;;;;19.30;8.90;;;23.70;48.20;;;;;;215337;1293;22614;-58
2022/01/09 18:39:43;;;;;;;19.60;8.10;;;23.50;49.10;;;;;;215165;1293;22786;-58
2022/01/09 18:45:06;;;;;;;15.80;9.10;;;23.70;49.00;;;;;;215062;1293;23218;-57
2022/01/09 18:50:26;;;;;;;19.40;9.00;;;23.60;49.20;;;;;;214884;1293;22651;-57
2022/01/09 18:55:49;;;;;;;14.60;9.00;;;23.60;49.00;;;;;;214836;1296;25216;-57
2022/01/09 19:01:11;;;;;;;18.40;9.20;;;23.60;50.20;;;;;;215261;1293;22632;-57
2022/01/09 19:06:49;;;;;;;16.10;8.90;;;23.80;51.80;;;;;;215290;1294;24297;-56
2022/01/09 19:11:58;;;;;;;17.80;8.90;;;24.00;52.80;;;;;;215121;1296;22722;-56
2022/01/09 19:17:23;;;;;;;18.30;9.50;;;24.10;52.70;;;;;;215229;1296;22602;-55
2022/01/09 19:22:38;;;;;;;15.70;9.50;;;24.00;52.20;;;;;;214994;1295;22575;-56
2022/01/09 19:27:42;;;;;;;15.20;8.80;;;24.00;52.30;;;;;;215125;1293;25540;-56
2022/01/09 19:32:49;;;;;;;16.10;8.90;;;23.80;52.70;;;;;;215053;1296;24253;-55
2022/01/09 19:37:53;;;;;;;21.50;9.80;;;23.60;54.30;;;;;;214895;1298;23872;-55
2022/01/09 19:42:56;;;;;;;17.40;10.90;;;23.60;55.50;;;;;;215048;1296;22616;-55
2022/01/09 19:48:01;;;;;;;34.30;11.50;;;23.50;55.90;;;;;;215013;1294;23315;-58
2022/01/09 19:53:11;;;;;;;26.90;12.00;;;23.40;57.20;;;;;;215037;1296;22657;-57
2022/01/09 19:58:18;;;;;;;21.20;10.60;;;23.20;57.50;;;;;;215527;1296;22639;-54
2022/01/09 20:03:25;;;;;;;24.20;12.20;;;23.10;57.90;;;;;;215467;1294;22591;-54
2022/01/09 20:08:31;;;;;;;22.70;12.20;;;23.00;57.80;;;;;;215248;1294;22635;-55
2022/01/09 20:13:38;;;;;;;25.60;11.00;;;22.90;58.00;;;;;;215354;1293;25436;-55
2022/01/09 20:18:50;;;;;;;26.90;11.60;;;22.80;57.60;;;;;;215433;1293;25571;-57
2022/01/09 20:24:24;;;;;;;22.80;10.70;;;22.70;58.10;;;;;;215533;1294;22631;-57
2022/01/09 20:29:29;;;;;;;24.00;10.40;;;22.60;57.70;;;;;;215453;1296;22592;-54
2022/01/09 20:34:34;;;;;;;23.40;10.70;;;22.60;57.70;;;;;;215183;1297;22671;-54
2022/01/09 20:39:41;;;;;;;18.70;10.40;;;22.60;57.30;;;;;;215341;1293;22688;-54
2022/01/09 20:44:46;;;;;;;18.60;9.60;;;22.60;57.00;;;;;;214913;1297;24345;-56
2022/01/09 20:49:56;;;;;;;23.40;9.90;;;22.60;57.10;;;;;;215092;1297;22750;-58
2022/01/09 20:55:05;;;;;;;19.70;10.30;;;22.50;57.20;;;;;;215128;1297;24339;-56
2022/01/09 21:00:10;;;;;;;18.80;10.30;;;22.40;56.80;;;;;;215268;1294;22679;-56
2022/01/09 21:05:17;;;;;;;19.00;10.30;;;22.40;56.80;;;;;;215222;1293;24364;-59
2022/01/09 21:10:27;;;;;;;19.40;10.00;;;22.40;56.40;;;;;;214937;1296;25521;-56
2022/01/09 21:15:34;;;;;;;20.10;11.00;;;22.30;56.70;;;;;;215033;1293;25531;-56
2022/01/09 21:20:47;;;;;;;22.00;10.40;;;22.30;56.70;;;;;;215370;1296;22618;-56
2022/01/09 21:25:56;;;;;;;18.90;10.30;;;22.20;56.90;;;;;;215006;1294;22594;-56
2022/01/09 21:31:02;;;;;;;17.10;10.10;;;22.20;56.50;;;;;;215084;1297;22740;-56
2022/01/09 21:36:16;;;;;;;17.80;9.60;;;22.10;56.20;;;;;;215389;1293;25579;-56
2022/01/09 21:41:54;;;;;;;20.60;10.60;;;22.10;56.30;;;;;;214848;1297;24297;-56
2022/01/09 21:47:19;;;;;;;15.50;9.80;;;22.20;55.70;;;;;;215237;1293;25283;-56
2022/01/09 21:53:05;;;;;;;19.60;11.50;;;22.20;54.80;;;;;;215259;1293;25405;-55
2022/01/09 21:58:25;;;;;;;20.40;10.90;;;22.70;54.10;;;;;;215163;1293;25347;-57
2022/01/09 22:04:36;;;;;;;19.40;10.60;;;22.90;52.80;;;;;;214958;1294;22735;-54
2022/01/09 22:10:14;;;;;;;19.00;10.80;;;22.80;52.80;;;;;;214992;1293;22651;-56
2022/01/09 22:15:33;;;;;;;21.00;11.20;;;22.80;53.20;;;;;;215200;1293;22948;-56
2022/01/09 22:20:37;;;;;;;17.70;10.30;;;22.90;52.80;;;;;;215616;1293;22576;-56
2022/01/09 22:25:46;;;;;;;20.70;10.60;;;23.20;53.30;;;;;;215286;1293;23328;-59
2022/01/09 22:30:52;;;;;;;19.60;11.20;;;23.30;52.90;;;;;;215328;1293;22616;-57
2022/01/09 22:36:20;;;;;;;18.40;11.10;;;23.50;52.50;;;;;;215355;1292;25556;-58
2022/01/09 22:41:37;;;;;;;19.50;11.60;;;23.60;52.20;;;;;;215618;1293;25391;-58
2022/01/09 22:46:42;;;;;;;16.20;10.70;;;23.60;52.10;;;;;;215426;1293;22588;-58
2022/01/09 22:51:48;;;;;;;18.20;10.50;;;23.70;51.50;;;;;;215599;1293;22604;-58
2022/01/09 22:56:51;;;;;;;16.70;11.00;;;23.80;51.40;;;;;;215386;1293;22790;-57
2022/01/09 23:02:00;;;;;;;16.80;11.10;;;23.80;51.50;;;;;;215530;1293;22599;-56
2022/01/09 23:07:06;;;;;;;15.70;10.20;;;23.80;51.00;;;;;;215704;1293;24420;-56
2022/01/09 23:12:10;;;;;;;16.70;10.50;;;23.90;51.40;;;;;;215404;1293;25362;-56
2022/01/09 23:17:14;;;;;;;15.90;10.40;;;23.90;50.80;;;;;;215273;1293;24190;-56
2022/01/09 23:22:25;;;;;;;16.20;10.40;;;23.90;50.60;;;;;;219030;1296;25352;-58
2022/01/09 23:27:42;;;;;;;17.00;10.60;;;23.90;50.60;;;;;;215188;1293;24358;-56
2022/01/09 23:32:52;;;;;;;21.20;11.00;;;23.90;50.50;;;;;;215133;1293;26373;-58
2022/01/09 23:37:58;;;;;;;19.90;10.90;;;23.90;50.90;;;;;;215373;1293;24567;-56
2022/01/09 23:43:04;;;;;;;15.80;10.60;;;23.90;51.30;;;;;;215487;1293;24417;-55
2022/01/09 23:53:31;;;;;;;17.70;10.00;;;23.70;51.30;;;;;;215142;1293;22585;-54
2022/01/09 23:58:35;;;;;;;16.30;10.50;;;23.70;51.30;;;;;;215256;1293;23527;-54
